Time;durP1;ratioP1;P1;durP2;ratioP2;P2;SDS_P1;SDS_P2;PMS_P1;PMS_P2;Temp;Humidity;BMP_temperature;BMP_pressure;BME280_temperature;BME280_humidity;BME280_pressure;Samples;Min_cycle;Max_cycle;Signal;HPM_P1;HPM_P2
2023/01/06 04:00:58;;;;;;;2.00;1.17;;;11.20;85.40;;;;;;5933933;23;20508;-77
2023/01/06 04:03:26;;;;;;;1.70;0.90;;;11.20;85.00;;;;;;4993620;28;20442;-77
2023/01/06 04:05:53;;;;;;;1.97;1.27;;;11.20;85.20;;;;;;4993512;28;20485;-77
2023/01/06 04:08:20;;;;;;;1.80;1.20;;;11.10;85.50;;;;;;4995448;28;20507;-77
2023/01/06 04:10:46;;;;;;;2.87;1.20;;;10.90;86.60;;;;;;4997227;28;20527;-77
2023/01/06 04:13:12;;;;;;;1.90;1.10;;;10.90;86.80;;;;;;4997202;28;20480;-77
2023/01/06 04:15:39;;;;;;;2.10;1.13;;;10.90;86.80;;;;;;4997866;28;20437;-77
2023/01/06 04:18:07;;;;;;;2.80;1.33;;;11.00;86.60;;;;;;4997149;28;20261;-77
2023/01/06 04:20:33;;;;;;;2.00;1.40;;;11.10;86.10;;;;;;4997057;28;20902;-77
2023/01/06 04:23:00;;;;;;;2.37;1.10;;;10.90;86.70;;;;;;4997134;28;20868;-77
2023/01/06 04:25:27;;;;;;;1.70;0.90;;;10.90;86.90;;;;;;4996958;28;20484;-77
2023/01/06 04:27:53;;;;;;;2.73;1.20;;;10.90;86.80;;;;;;4996973;28;20453;-77
2023/01/06 04:30:20;;;;;;;2.20;1.00;;;10.90;86.80;;;;;;4996548;28;20504;-77
2023/01/06 04:32:47;;;;;;;1.90;1.07;;;10.90;87.00;;;;;;4996914;28;20445;-77
2023/01/06 04:35:15;;;;;;;2.33;1.10;;;10.80;86.90;;;;;;4996832;28;20449;-77
2023/01/06 04:37:42;;;;;;;2.20;1.10;;;10.80;86.80;;;;;;4996830;28;20445;-77
2023/01/06 04:40:10;;;;;;;2.43;1.57;;;10.70;87.30;;;;;;4996723;28;20449;-77
2023/01/06 04:45:18;;;;;;;2.50;1.10;;;10.70;87.30;;;;;;4995965;28;20970;-78
2023/01/06 04:47:45;;;;;;;2.20;1.70;;;10.80;86.80;;;;;;4996667;28;20573;-78
2023/01/06 04:50:12;;;;;;;2.17;1.30;;;10.90;86.60;;;;;;4996368;28;20802;-78
2023/01/06 04:52:40;;;;;;;2.10;1.40;;;10.90;86.20;;;;;;4996192;28;20990;-78
2023/01/06 04:55:07;;;;;;;2.10;1.30;;;11.00;86.00;;;;;;4996514;28;20449;-78
2023/01/06 04:57:34;;;;;;;2.33;1.40;;;11.00;85.80;;;;;;4996445;28;20464;-77
2023/01/06 05:00:01;;;;;;;1.90;1.13;;;11.00;85.70;;;;;;4996444;28;20504;-77
2023/01/06 05:02:28;;;;;;;1.60;0.90;;;10.90;86.00;;;;;;4995994;28;20488;-77
2023/01/06 05:04:55;;;;;;;2.43;1.13;;;10.90;86.00;;;;;;4996345;28;20481;-78
2023/01/06 05:07:21;;;;;;;1.93;1.37;;;11.00;86.00;;;;;;4996323;28;20456;-78
2023/01/06 05:09:49;;;;;;;2.97;1.20;;;11.00;85.90;;;;;;4995975;28;20446;-78
2023/01/06 05:12:16;;;;;;;4.10;1.63;;;10.90;85.80;;;;;;4996148;28;20520;-77
2023/01/06 05:14:44;;;;;;;1.80;1.20;;;10.70;86.60;;;;;;4996253;28;20448;-77
2023/01/06 05:17:10;;;;;;;1.80;1.00;;;10.60;87.00;;;;;;4996176;28;20456;-78
2023/01/06 05:19:37;;;;;;;2.00;1.37;;;10.60;87.10;;;;;;4995302;28;20449;-78
2023/01/06 05:22:04;;;;;;;1.80;1.20;;;10.60;87.30;;;;;;4996002;28;20469;-78
2023/01/06 05:24:30;;;;;;;1.80;1.20;;;10.60;87.10;;;;;;4996746;28;20446;-77
2023/01/06 05:26:58;;;;;;;1.80;1.00;;;10.70;87.30;;;;;;4997679;28;20480;-77
2023/01/06 05:29:25;;;;;;;1.87;1.00;;;10.90;86.90;;;;;;4996043;28;20455;-77
2023/01/06 05:31:52;;;;;;;1.60;0.87;;;11.00;86.60;;;;;;4995829;28;20477;-77
2023/01/06 05:34:18;;;;;;;2.10;1.00;;;11.10;86.10;;;;;;4995491;28;20938;-77
2023/01/06 05:36:45;;;;;;;2.30;1.30;;;11.20;85.30;;;;;;4995557;28;20866;-78
2023/01/06 05:39:12;;;;;;;2.00;1.20;;;11.00;85.50;;;;;;4995721;28;20860;-77
2023/01/06 05:41:38;;;;;;;2.20;1.50;;;10.90;85.90;;;;;;4995542;28;20473;-77
2023/01/06 05:44:06;;;;;;;1.73;0.97;;;10.80;86.30;;;;;;4995680;28;20453;-77
2023/01/06 05:46:33;;;;;;;1.80;0.90;;;10.90;86.30;;;;;;4995426;28;20481;-77
2023/01/06 05:49:00;;;;;;;2.00;1.27;;;11.00;86.10;;;;;;4995549;28;20449;-77
2023/01/06 05:51:27;;;;;;;1.73;1.03;;;10.90;86.00;;;;;;4995503;28;20477;-78
2023/01/06 05:53:54;;;;;;;1.80;1.00;;;10.90;86.30;;;;;;4995613;28;20441;-77
2023/01/06 05:56:22;;;;;;;1.97;1.10;;;10.80;86.30;;;;;;4995481;28;20445;-77
2023/01/06 05:58:51;;;;;;;1.80;1.17;;;10.90;86.30;;;;;;4995358;28;20897;-78
2023/01/06 06:01:22;;;;;;;1.67;1.10;;;11.10;85.90;;;;;;4995251;28;20478;-78
2023/01/06 06:03:49;;;;;;;1.97;1.27;;;11.00;85.80;;;;;;4995573;28;20481;-78
2023/01/06 06:06:17;;;;;;;1.80;0.97;;;11.00;87.30;;;;;;4995293;28;20493;-78
2023/01/06 06:08:44;;;;;;;2.40;1.43;;;11.10;86.70;;;;;;4995139;28;20449;-78
2023/01/06 06:11:13;;;;;;;1.70;1.00;;;11.10;85.90;;;;;;4994997;28;20528;-78
2023/01/06 06:13:45;;;;;;;1.70;1.20;;;11.20;85.50;;;;;;4994990;28;20449;-78
2023/01/06 06:16:14;;;;;;;1.97;1.20;;;11.10;85.30;;;;;;4994957;28;20465;-77
2023/01/06 06:18:43;;;;;;;2.40;1.10;;;11.10;85.50;;;;;;4994971;28;20446;-77
2023/01/06 06:21:11;;;;;;;2.93;1.23;;;11.20;85.00;;;;;;4994851;28;20465;-77
2023/01/06 06:23:38;;;;;;;1.90;1.00;;;11.20;85.10;;;;;;4994858;28;20876;-77
2023/01/06 06:26:04;;;;;;;2.30;1.40;;;11.20;84.70;;;;;;4994663;28;20535;-77
2023/01/06 06:28:31;;;;;;;2.00;1.20;;;11.10;85.10;;;;;;4994747;28;20449;-77
2023/01/06 06:31:03;;;;;;;2.00;1.10;;;11.10;84.90;;;;;;4993875;28;20498;-77
2023/01/06 06:33:30;;;;;;;1.80;1.10;;;11.10;84.90;;;;;;4994688;28;20555;-77
2023/01/06 06:35:58;;;;;;;1.83;1.00;;;11.10;85.10;;;;;;4994660;28;20441;-77
2023/01/06 06:38:25;;;;;;;1.70;0.90;;;11.00;85.30;;;;;;4994600;28;20449;-77
2023/01/06 06:40:52;;;;;;;1.90;1.10;;;11.00;85.80;;;;;;4994444;28;20889;-77
2023/01/06 06:43:19;;;;;;;1.73;1.03;;;10.80;85.80;;;;;;4994502;28;20449;-77
2023/01/06 06:45:46;;;;;;;2.03;1.43;;;10.80;86.40;;;;;;4994328;28;20543;-77
2023/01/06 06:48:13;;;;;;;1.73;1.03;;;10.80;86.30;;;;;;4994030;28;20943;-77
2023/01/06 06:50:40;;;;;;;2.00;1.30;;;10.70;86.60;;;;;;4996670;28;20519;-77
2023/01/06 06:53:08;;;;;;;2.23;1.10;;;10.60;86.80;;;;;;4998124;28;20453;-77
2023/01/06 06:55:35;;;;;;;2.00;1.00;;;10.60;86.70;;;;;;4996934;28;20445;-77
2023/01/06 06:58:02;;;;;;;2.17;1.30;;;10.60;87.10;;;;;;4994903;28;20453;-77
2023/01/06 07:00:28;;;;;;;1.50;0.83;;;10.60;87.00;;;;;;4993903;28;20997;-77
2023/01/06 07:02:55;;;;;;;2.57;1.10;;;10.60;87.40;;;;;;4994084;28;20892;-77
2023/01/06 07:05:24;;;;;;;2.03;1.20;;;10.70;87.10;;;;;;4994121;28;20576;-76
2023/01/06 07:07:51;;;;;;;2.20;1.30;;;10.40;87.50;;;;;;4994179;28;20449;-76
2023/01/06 07:10:19;;;;;;;2.00;1.03;;;10.50;87.80;;;;;;4993816;28;20947;-77
2023/01/06 07:12:45;;;;;;;1.70;1.00;;;10.60;87.40;;;;;;4994114;28;20453;-77
2023/01/06 07:15:12;;;;;;;1.93;0.87;;;10.60;87.50;;;;;;4993633;28;20806;-77
2023/01/06 07:17:40;;;;;;;1.80;0.97;;;10.60;87.40;;;;;;4993718;28;20955;-77
2023/01/06 07:20:08;;;;;;;1.80;1.10;;;10.70;87.20;;;;;;4993957;28;20454;-76
2023/01/06 07:22:37;;;;;;;1.90;1.00;;;10.70;87.30;;;;;;4993810;28;20885;-76
2023/01/06 07:25:04;;;;;;;1.70;0.90;;;10.60;87.60;;;;;;4993496;28;20503;-77
2023/01/06 07:27:32;;;;;;;2.00;1.00;;;10.60;87.70;;;;;;4993890;28;20449;-77
2023/01/06 07:29:59;;;;;;;2.50;1.33;;;10.50;88.50;;;;;;4993556;28;20997;-76
2023/01/06 07:32:25;;;;;;;1.80;0.90;;;10.40;88.40;;;;;;4993868;28;20477;-76
2023/01/06 07:34:52;;;;;;;1.60;0.90;;;10.40;88.60;;;;;;4993768;28;20441;-76
2023/01/06 07:37:19;;;;;;;1.80;1.00;;;10.50;88.90;;;;;;4993408;28;20812;-76
2023/01/06 07:39:46;;;;;;;1.93;1.10;;;10.80;88.50;;;;;;4993755;28;20449;-77
2023/01/06 07:42:13;;;;;;;1.70;0.90;;;11.00;88.00;;;;;;4995511;28;20477;-77
2023/01/06 07:44:41;;;;;;;1.60;0.90;;;11.10;87.20;;;;;;4997747;28;20448;-77
2023/01/06 07:47:09;;;;;;;1.70;0.90;;;10.90;87.60;;;;;;4997229;28;20901;-76
2023/01/06 07:49:36;;;;;;;1.70;1.00;;;10.80;87.90;;;;;;4997865;28;20547;-77
2023/01/06 07:52:03;;;;;;;1.70;1.10;;;10.90;88.30;;;;;;4997776;28;20469;-78
2023/01/06 07:54:29;;;;;;;2.20;1.30;;;11.10;88.00;;;;;;4997450;28;20504;-78
2023/01/06 07:56:56;;;;;;;4.37;0.90;;;11.30;87.50;;;;;;4997770;28;20540;-78
2023/01/06 07:59:23;;;;;;;1.50;0.80;;;11.50;87.10;;;;;;4997580;28;20934;-78
2023/01/06 08:01:51;;;;;;;1.50;0.80;;;11.60;86.70;;;;;;4997141;28;21059;-77
2023/01/06 08:04:17;;;;;;;1.60;0.80;;;11.70;86.40;;;;;;4997266;28;20865;-77
2023/01/06 08:06:44;;;;;;;1.63;0.80;;;11.80;86.10;;;;;;4997379;28;20564;-78
2023/01/06 08:09:11;;;;;;;1.60;0.90;;;11.70;85.90;;;;;;4997550;28;20453;-77
2023/01/06 08:11:37;;;;;;;1.60;0.93;;;11.60;86.60;;;;;;4997417;28;20523;-78
2023/01/06 08:14:04;;;;;;;1.50;0.80;;;11.50;86.60;;;;;;4997318;28;20441;-77
2023/01/06 08:16:31;;;;;;;1.77;0.90;;;11.40;87.10;;;;;;4997355;28;20477;-78
2023/01/06 08:18:59;;;;;;;1.50;0.70;;;11.50;87.20;;;;;;4996949;28;20449;-77
2023/01/06 08:21:25;;;;;;;2.03;0.80;;;11.70;86.90;;;;;;4996784;28;20461;-77
2023/01/06 08:23:52;;;;;;;1.60;0.90;;;11.90;86.60;;;;;;4997008;28;20962;-78
2023/01/06 08:26:19;;;;;;;1.50;0.70;;;11.90;86.40;;;;;;4997141;28;20484;-78
2023/01/06 08:28:46;;;;;;;1.80;0.90;;;12.10;85.60;;;;;;4997306;28;20453;-78
2023/01/06 08:31:16;;;;;;;1.60;0.70;;;12.10;85.60;;;;;;4997164;28;20469;-78
2023/01/06 08:33:43;;;;;;;1.50;0.70;;;12.10;85.50;;;;;;4997535;28;20457;-79
2023/01/06 08:36:13;;;;;;;1.70;0.90;;;12.20;85.70;;;;;;5000753;28;20504;-78
2023/01/06 08:38:40;;;;;;;1.60;0.80;;;12.10;85.70;;;;;;5004901;28;20453;-78
2023/01/06 08:41:07;;;;;;;1.87;1.00;;;12.00;86.00;;;;;;5002647;28;20480;-78
2023/01/06 08:43:35;;;;;;;1.60;0.90;;;12.00;86.10;;;;;;4996699;28;21009;-78
2023/01/06 08:46:03;;;;;;;1.53;0.73;;;12.10;86.10;;;;;;4996658;28;20906;-78
2023/01/06 08:48:31;;;;;;;2.40;0.87;;;12.10;86.00;;;;;;4997874;28;20453;-78
2023/01/06 08:51:02;;;;;;;1.90;0.90;;;12.20;85.80;;;;;;4996850;28;20473;-79
2023/01/06 08:53:30;;;;;;;2.00;0.97;;;12.20;85.60;;;;;;4997118;28;20446;-78
2023/01/06 08:55:57;;;;;;;1.60;0.83;;;12.30;85.60;;;;;;4996683;28;20952;-79
2023/01/06 08:58:24;;;;;;;1.53;0.80;;;12.40;85.30;;;;;;4996586;28;20457;-77
2023/01/06 09:00:51;;;;;;;1.60;0.80;;;12.40;85.30;;;;;;4997115;28;20473;-78
2023/01/06 09:03:17;;;;;;;1.80;0.90;;;12.50;85.30;;;;;;4996757;28;20864;-77
2023/01/06 09:05:51;;;;;;;1.50;0.80;;;12.60;85.20;;;;;;4996452;28;20441;-78
2023/01/06 09:08:18;;;;;;;2.17;1.37;;;12.40;85.80;;;;;;4996424;28;20429;-77
2023/01/06 09:10:46;;;;;;;2.07;0.93;;;12.50;85.70;;;;;;4996260;28;20520;-78
2023/01/06 09:13:12;;;;;;;1.50;0.80;;;12.50;85.30;;;;;;4996142;28;20500;-77
2023/01/06 09:15:40;;;;;;;1.70;0.90;;;12.40;85.10;;;;;;4996523;28;20480;-77
2023/01/06 09:18:07;;;;;;;1.70;0.90;;;12.40;85.30;;;;;;4996156;28;20548;-77
2023/01/06 09:20:34;;;;;;;1.70;0.90;;;12.30;85.40;;;;;;4996012;28;20475;-75
2023/01/06 09:23:01;;;;;;;1.60;0.80;;;12.30;85.70;;;;;;4996396;28;20445;-76
2023/01/06 09:25:28;;;;;;;1.50;0.70;;;12.30;85.50;;;;;;4996150;28;20450;-77
2023/01/06 09:27:57;;;;;;;1.70;0.90;;;12.20;85.50;;;;;;4995917;28;20516;-77
2023/01/06 09:30:24;;;;;;;1.50;0.80;;;12.20;85.60;;;;;;4995388;28;20938;-77
2023/01/06 09:32:51;;;;;;;1.87;0.93;;;12.30;85.50;;;;;;4995780;28;20954;-77
2023/01/06 09:35:17;;;;;;;1.80;0.87;;;12.30;84.90;;;;;;4995476;28;20989;-77
2023/01/06 09:37:44;;;;;;;1.50;0.80;;;12.40;84.90;;;;;;4995644;28;20845;-77
2023/01/06 09:40:17;;;;;;;1.90;1.00;;;12.40;84.70;;;;;;4995920;28;20827;-77
2023/01/06 09:42:55;;;;;;;1.60;0.80;;;12.50;84.50;;;;;;4995673;28;20895;-77
2023/01/06 09:45:34;;;;;;;1.60;0.77;;;12.50;84.40;;;;;;4995611;28;20903;-76
2023/01/06 09:48:02;;;;;;;3.87;1.20;;;12.50;84.20;;;;;;4995593;28;20556;-76
2023/01/06 09:50:34;;;;;;;1.77;0.87;;;12.70;84.10;;;;;;4995431;28;20449;-76
2023/01/06 09:53:06;;;;;;;1.60;0.83;;;12.70;84.20;;;;;;4995672;28;20496;-75
2023/01/06 09:55:36;;;;;;;1.50;0.70;;;12.80;83.10;;;;;;4995518;28;20433;-76
2023/01/06 09:58:09;;;;;;;1.60;0.90;;;12.80;83.50;;;;;;4995682;28;20441;-77
2023/01/06 10:00:41;;;;;;;1.50;0.70;;;12.80;82.90;;;;;;4995287;28;20457;-76
2023/01/06 10:03:13;;;;;;;1.63;0.80;;;13.00;82.30;;;;;;4995372;28;20437;-76
2023/01/06 10:05:48;;;;;;;1.60;0.70;;;13.10;82.10;;;;;;4994977;28;20919;-77
2023/01/06 10:08:22;;;;;;;1.50;0.80;;;13.20;81.20;;;;;;4994868;28;20481;-77
2023/01/06 10:10:59;;;;;;;1.60;0.80;;;13.00;80.20;;;;;;4995250;28;20519;-76
2023/01/06 10:13:39;;;;;;;1.50;0.70;;;13.10;79.60;;;;;;4995207;28;20492;-76
2023/01/06 10:16:16;;;;;;;1.50;0.70;;;12.90;77.80;;;;;;4995066;28;20846;-77
2023/01/06 10:18:52;;;;;;;1.50;0.70;;;12.80;76.80;;;;;;4995688;28;20444;-77
2023/01/06 10:21:28;;;;;;;1.60;0.70;;;12.90;77.50;;;;;;4995094;28;20516;-77
2023/01/06 10:24:08;;;;;;;1.50;0.70;;;12.90;77.20;;;;;;4994976;28;20433;-77
2023/01/06 10:26:42;;;;;;;1.40;0.60;;;13.10;76.90;;;;;;4994859;28;20465;-77
2023/01/06 10:29:14;;;;;;;1.50;0.70;;;13.20;76.70;;;;;;4994842;28;20428;-77
2023/01/06 10:31:44;;;;;;;1.43;0.70;;;13.30;76.40;;;;;;4994685;28;20472;-77
2023/01/06 10:34:20;;;;;;;1.50;0.70;;;13.30;76.20;;;;;;4994734;28;20453;-77
2023/01/06 10:36:52;;;;;;;1.47;0.63;;;13.20;75.70;;;;;;4994688;28;20439;-76
2023/01/06 10:39:21;;;;;;;1.40;0.60;;;13.00;76.40;;;;;;4994654;28;20521;-76
2023/01/06 10:42:54;;;;;;;1.40;0.60;;;13.00;77.70;;;;;;4994756;28;20465;-78
2023/01/06 10:44:45;;;;;;;1.70;0.80;;;13.00;78.00;;;;;;4994092;28;20446;-78
2023/01/06 10:47:22;;;;;;;1.60;0.77;;;13.20;78.00;;;;;;4995455;28;20481;-77
2023/01/06 10:49:49;;;;;;;1.50;0.70;;;13.00;78.90;;;;;;4998595;28;20437;-79
2023/01/06 10:52:16;;;;;;;1.50;0.70;;;12.90;80.00;;;;;;5012375;28;20465;-79
2023/01/06 10:54:44;;;;;;;1.87;0.73;;;13.00;79.80;;;;;;5003007;28;20453;-75
2023/01/06 10:57:16;;;;;;;1.43;0.70;;;12.80;78.00;;;;;;4995132;28;20503;-78
2023/01/06 11:00:22;;;;;;;1.40;0.60;;;12.60;79.60;;;;;;4995390;28;20433;-78
2023/01/06 11:02:52;;;;;;;1.60;0.80;;;12.40;79.40;;;;;;4990326;28;20457;-78
2023/01/06 11:05:22;;;;;;;1.60;0.70;;;12.20;80.40;;;;;;4995417;28;20473;-77
2023/01/06 11:07:54;;;;;;;1.50;0.70;;;12.20;81.10;;;;;;4994422;28;20477;-78
2023/01/06 11:10:27;;;;;;;1.50;0.70;;;12.40;81.20;;;;;;4995663;28;20425;-79
2023/01/06 11:12:56;;;;;;;1.60;0.80;;;12.60;79.70;;;;;;4994764;28;20441;-78
2023/01/06 11:15:28;;;;;;;1.50;0.70;;;12.70;79.10;;;;;;4994252;28;20449;-78
2023/01/06 11:17:57;;;;;;;1.47;0.80;;;12.60;78.30;;;;;;4994178;28;20442;-78
2023/01/06 11:20:32;;;;;;;1.50;0.70;;;12.60;78.70;;;;;;4994423;28;20521;-74
2023/01/06 11:23:14;;;;;;;1.40;0.60;;;12.70;79.10;;;;;;4993957;28;20455;-77
2023/01/06 11:25:41;;;;;;;1.50;0.70;;;12.60;77.90;;;;;;4995039;28;20437;-79
2023/01/06 11:28:15;;;;;;;2.00;0.80;;;12.70;78.30;;;;;;4994301;28;20536;-79
2023/01/06 11:30:48;;;;;;;1.50;0.70;;;12.60;76.90;;;;;;4994232;28;20473;-78
2023/01/06 11:33:19;;;;;;;1.40;0.60;;;12.80;77.50;;;;;;4993992;28;20434;-78
2023/01/06 11:35:47;;;;;;;1.73;0.80;;;12.70;76.30;;;;;;4994355;28;20437;-75
2023/01/06 11:38:15;;;;;;;1.40;0.60;;;12.60;77.60;;;;;;4994001;28;20477;-79
2023/01/06 11:40:43;;;;;;;1.50;0.80;;;12.50;77.10;;;;;;4994036;28;20837;-78
2023/01/06 11:43:14;;;;;;;1.50;0.70;;;12.40;77.30;;;;;;4993858;28;20457;-75
2023/01/06 11:45:45;;;;;;;1.57;0.70;;;12.40;77.10;;;;;;4993652;28;20430;-77
2023/01/06 11:48:16;;;;;;;1.50;0.70;;;12.50;77.70;;;;;;4993650;28;20469;-77
2023/01/06 11:50:52;;;;;;;1.60;0.80;;;12.50;77.20;;;;;;4994227;28;20473;-77
2023/01/06 11:56:02;;;;;;;1.60;0.70;;;12.60;76.70;;;;;;4975770;28;20453;-75
2023/01/06 11:58:45;;;;;;;1.50;0.63;;;12.20;77.50;;;;;;4993527;28;20441;-76
2023/01/06 12:01:19;;;;;;;1.53;0.80;;;12.10;78.20;;;;;;4993428;28;20527;-77
2023/01/06 12:03:49;;;;;;;1.60;0.70;;;12.20;78.80;;;;;;4993986;28;20433;-79
2023/01/06 12:06:26;;;;;;;1.80;0.87;;;12.40;78.20;;;;;;4993687;28;20441;-77
2023/01/06 12:08:58;;;;;;;1.60;0.60;;;12.40;77.80;;;;;;4993569;28;20473;-77
2023/01/06 12:11:34;;;;;;;1.57;0.87;;;12.20;78.40;;;;;;4993504;28;20867;-77
2023/01/06 12:14:01;;;;;;;1.77;0.80;;;12.40;78.70;;;;;;4993618;28;20432;-77
2023/01/06 12:16:35;;;;;;;1.67;0.70;;;12.70;78.40;;;;;;4993182;28;20950;-77
2023/01/06 12:19:03;;;;;;;1.60;0.70;;;12.60;78.30;;;;;;4993515;28;20445;-77
2023/01/06 12:21:35;;;;;;;1.50;0.70;;;12.70;77.60;;;;;;4993341;28;20493;-77
2023/01/06 12:24:06;;;;;;;1.90;0.90;;;12.80;77.80;;;;;;4993451;28;20433;-78
2023/01/06 12:26:34;;;;;;;1.60;0.70;;;12.70;77.70;;;;;;4993103;28;20810;-78
2023/01/06 12:29:04;;;;;;;1.40;0.60;;;12.70;77.90;;;;;;4994716;28;20520;-76
2023/01/06 12:31:43;;;;;;;1.60;0.80;;;12.80;77.80;;;;;;4997281;28;20883;-75
2023/01/06 12:34:16;;;;;;;1.60;0.80;;;12.70;78.20;;;;;;4997101;28;20778;-77
2023/01/06 12:36:50;;;;;;;1.40;0.60;;;12.80;78.10;;;;;;4997047;28;20527;-76
2023/01/06 12:39:22;;;;;;;1.50;0.70;;;12.60;77.90;;;;;;4997116;28;20430;-79
2023/01/06 12:41:52;;;;;;;1.50;0.70;;;12.40;78.60;;;;;;4997028;28;20469;-76
2023/01/06 12:44:34;;;;;;;1.50;0.70;;;12.30;79.20;;;;;;4997032;28;20577;-77
2023/01/06 12:47:10;;;;;;;1.90;0.70;;;12.20;79.50;;;;;;4996719;28;20441;-78
2023/01/06 12:49:42;;;;;;;1.50;0.70;;;12.10;79.80;;;;;;4996772;28;20433;-75
2023/01/06 12:52:15;;;;;;;1.50;0.70;;;12.00;80.20;;;;;;4996921;28;20817;-74
2023/01/06 12:54:47;;;;;;;1.47;0.70;;;12.10;80.40;;;;;;4997259;28;20441;-78
2023/01/06 12:57:25;;;;;;;1.50;0.70;;;12.20;80.30;;;;;;4996657;28;20915;-75
2023/01/06 13:00:06;;;;;;;1.50;0.80;;;12.40;80.10;;;;;;4996528;28;20507;-76
2023/01/06 13:02:54;;;;;;;1.70;0.70;;;12.60;79.00;;;;;;4998317;28;20477;-77
2023/01/06 13:05:36;;;;;;;12.20;1.17;;;12.60;78.50;;;;;;4999951;28;20414;-78
2023/01/06 13:08:19;;;;;;;1.57;0.80;;;12.50;79.50;;;;;;5001888;28;20478;-75
2023/01/06 13:10:52;;;;;;;2.37;0.90;;;12.50;79.90;;;;;;5000789;28;20469;-78
2023/01/06 13:13:41;;;;;;;1.50;0.70;;;12.60;80.10;;;;;;5001043;28;20426;-78
2023/01/06 13:16:17;;;;;;;4.63;0.80;;;12.60;79.20;;;;;;5005024;28;20438;-78
2023/01/06 13:18:53;;;;;;;2.47;0.93;;;12.60;79.20;;;;;;5001817;28;20425;-75
2023/01/06 13:21:23;;;;;;;1.50;0.70;;;12.50;79.40;;;;;;5001024;28;20985;-77
2023/01/06 13:24:09;;;;;;;4.80;0.97;;;12.50;80.70;;;;;;5004382;28;20442;-74
2023/01/06 13:27:07;;;;;;;1.60;0.80;;;12.50;80.00;;;;;;5000140;28;20437;-77
2023/01/06 13:29:48;;;;;;;2.37;0.70;;;12.60;80.20;;;;;;5003161;28;20455;-77
2023/01/06 13:32:37;;;;;;;1.70;1.00;;;12.50;80.10;;;;;;5000287;28;20503;-78
2023/01/06 13:35:49;;;;;;;1.43;0.70;;;12.60;80.10;;;;;;5000841;28;20943;-76
2023/01/06 13:38:34;;;;;;;1.70;0.90;;;12.80;80.00;;;;;;4920953;29;20452;-77
2023/01/06 13:41:06;;;;;;;1.80;1.03;;;12.80;78.30;;;;;;4989671;28;20853;-76
2023/01/06 13:43:35;;;;;;;1.70;0.90;;;12.80;78.60;;;;;;4997066;28;20438;-75
2023/01/06 13:46:06;;;;;;;1.70;0.90;;;12.70;78.10;;;;;;4996760;28;20972;-76
2023/01/06 13:48:38;;;;;;;1.60;0.90;;;12.80;78.30;;;;;;4998283;28;20469;-76
2023/01/06 13:51:07;;;;;;;1.60;0.80;;;13.00;77.80;;;;;;4997177;28;21037;-75
2023/01/06 13:53:38;;;;;;;1.50;0.70;;;13.10;76.80;;;;;;4998083;28;20456;-77
2023/01/06 13:56:30;;;;;;;1.43;0.70;;;13.30;76.70;;;;;;4996697;28;20536;-75
2023/01/06 13:59:23;;;;;;;1.40;0.70;;;13.20;76.00;;;;;;4996629;28;20433;-75
2023/01/06 14:01:50;;;;;;;1.60;0.63;;;13.10;75.70;;;;;;4995360;28;20488;-74
2023/01/06 14:04:46;;;;;;;1.40;0.60;;;13.00;76.50;;;;;;4995632;28;20857;-75
2023/01/06 14:07:13;;;;;;;1.40;0.70;;;12.90;77.90;;;;;;4997493;28;20454;-75
2023/01/06 14:09:48;;;;;;;1.90;0.90;;;12.70;78.10;;;;;;4996961;28;20958;-75
2023/01/06 14:12:20;;;;;;;1.50;0.73;;;12.80;78.30;;;;;;4997486;28;20480;-75
2023/01/06 14:14:58;;;;;;;1.77;0.80;;;12.80;78.70;;;;;;4996831;28;20438;-76
2023/01/06 14:17:39;;;;;;;1.60;0.80;;;12.90;78.60;;;;;;4996195;28;20414;-75
2023/01/06 14:20:18;;;;;;;1.50;0.70;;;13.10;78.40;;;;;;4996946;28;20438;-75
2023/01/06 14:22:57;;;;;;;1.50;0.70;;;13.20;77.60;;;;;;4996178;28;20469;-76
2023/01/06 14:25:24;;;;;;;1.50;0.70;;;13.20;77.20;;;;;;4996923;28;20838;-76
2023/01/06 14:28:26;;;;;;;1.50;0.63;;;13.10;77.10;;;;;;4996486;28;20477;-76
2023/01/06 14:31:46;;;;;;;1.50;0.80;;;13.10;77.00;;;;;;4999909;28;20464;-77
2023/01/06 14:34:16;;;;;;;1.50;0.60;;;12.60;78.30;;;;;;4999218;28;20434;-77
2023/01/06 14:36:44;;;;;;;2.10;0.90;;;12.60;78.90;;;;;;5000851;28;20529;-78
2023/01/06 14:39:20;;;;;;;2.50;1.40;;;12.60;78.50;;;;;;5001854;28;20469;-77
2023/01/06 14:41:54;;;;;;;1.70;1.00;;;12.70;78.80;;;;;;5002093;28;20476;-74
2023/01/06 14:44:28;;;;;;;1.80;0.70;;;12.60;78.40;;;;;;4999865;28;20437;-77
2023/01/06 14:47:00;;;;;;;1.73;0.73;;;12.60;78.90;;;;;;5000609;28;20433;-77
2023/01/06 14:49:34;;;;;;;1.90;0.90;;;12.60;78.50;;;;;;4997779;28;20469;-77
2023/01/06 14:52:07;;;;;;;1.93;1.13;;;12.70;78.70;;;;;;4996637;28;20818;-75
2023/01/06 14:54:38;;;;;;;2.23;0.80;;;12.80;78.20;;;;;;4997463;28;20445;-74
2023/01/06 14:57:05;;;;;;;1.90;0.90;;;12.90;78.30;;;;;;4998326;28;20438;-71
2023/01/06 14:59:33;;;;;;;1.50;0.70;;;13.00;78.00;;;;;;4996307;28;20950;-73
2023/01/06 15:02:02;;;;;;;1.60;0.80;;;13.00;77.10;;;;;;4997034;28;20481;-75
2023/01/06 15:04:31;;;;;;;1.63;0.80;;;13.00;77.60;;;;;;4997239;28;20453;-72
2023/01/06 15:07:16;;;;;;;1.67;0.80;;;13.10;77.30;;;;;;4997570;28;20453;-74
2023/01/06 15:09:43;;;;;;;1.70;0.90;;;13.20;77.00;;;;;;4997833;28;20465;-75
2023/01/06 15:12:24;;;;;;;1.50;0.70;;;13.20;76.60;;;;;;4999337;28;20481;-77
2023/01/06 15:14:52;;;;;;;1.60;0.70;;;13.10;77.00;;;;;;4999676;28;20453;-75
2023/01/06 15:17:20;;;;;;;1.80;1.03;;;13.20;76.70;;;;;;4997114;28;20457;-76
2023/01/06 15:19:48;;;;;;;1.70;0.87;;;13.40;76.20;;;;;;5000205;28;20455;-80
2023/01/06 15:22:19;;;;;;;2.63;1.20;;;13.50;75.60;;;;;;5007402;28;20838;-76
2023/01/06 15:24:47;;;;;;;1.70;0.90;;;13.40;76.10;;;;;;4997537;28;20438;-75
2023/01/06 15:27:16;;;;;;;2.73;1.43;;;13.60;75.70;;;;;;4998048;28;20440;-78
2023/01/06 15:29:52;;;;;;;2.00;1.00;;;13.60;74.80;;;;;;4996633;28;20484;-74
2023/01/06 15:32:20;;;;;;;1.93;1.30;;;13.70;74.50;;;;;;4996871;28;20476;-75
2023/01/06 15:34:49;;;;;;;1.47;0.70;;;13.70;74.20;;;;;;4998278;28;20445;-75
2023/01/06 15:37:19;;;;;;;1.60;0.90;;;13.70;73.80;;;;;;4997209;28;20453;-76
2023/01/06 15:39:46;;;;;;;1.97;1.00;;;13.70;73.40;;;;;;4996782;28;20457;-76
2023/01/06 15:42:15;;;;;;;2.30;1.00;;;13.60;72.80;;;;;;4996888;28;20473;-77
2023/01/06 15:44:53;;;;;;;1.50;0.80;;;13.70;72.70;;;;;;4999494;28;20480;-77
2023/01/06 15:47:30;;;;;;;1.70;0.90;;;13.70;72.90;;;;;;4999105;28;20438;-76
2023/01/06 15:50:01;;;;;;;1.60;0.90;;;13.70;72.90;;;;;;4999556;28;20476;-76
2023/01/06 15:52:31;;;;;;;1.60;0.80;;;13.70;73.10;;;;;;4998129;28;20480;-76
2023/01/06 15:55:01;;;;;;;1.90;0.90;;;13.70;72.80;;;;;;4998484;28;20488;-76
2023/01/06 15:57:33;;;;;;;1.63;0.83;;;13.70;72.60;;;;;;4996255;28;20448;-75
2023/01/06 16:00:02;;;;;;;2.07;1.00;;;13.70;73.00;;;;;;4996472;28;20453;-75
2023/01/06 16:02:31;;;;;;;2.00;1.10;;;13.70;72.90;;;;;;4997531;28;20547;-74
2023/01/06 16:04:59;;;;;;;1.70;0.90;;;13.70;72.70;;;;;;5000399;28;20507;-75
2023/01/06 16:07:39;;;;;;;1.93;1.13;;;13.70;72.90;;;;;;5000993;28;20461;-76
2023/01/06 16:10:33;;;;;;;1.70;1.00;;;13.70;72.70;;;;;;5000354;28;20468;-75
2023/01/06 16:13:24;;;;;;;2.73;1.10;;;13.70;73.00;;;;;;5002174;28;20440;-75
2023/01/06 16:15:53;;;;;;;2.00;1.10;;;13.70;73.20;;;;;;5001682;28;20437;-74
2023/01/06 16:20:49;;;;;;;2.10;1.37;;;13.60;73.20;;;;;;5000226;28;20897;-74
2023/01/06 16:23:24;;;;;;;1.93;1.30;;;13.60;73.40;;;;;;5002960;28;20819;-74
2023/01/06 16:26:01;;;;;;;1.90;1.27;;;13.60;73.40;;;;;;5003204;28;20414;-75
2023/01/06 16:28:28;;;;;;;2.17;1.10;;;13.60;73.60;;;;;;5016000;28;20491;-75
2023/01/06 16:31:06;;;;;;;1.70;0.93;;;13.60;73.70;;;;;;5023181;28;20452;-74
2023/01/06 16:33:37;;;;;;;1.70;1.07;;;13.60;73.80;;;;;;5023882;28;20456;-75
2023/01/06 16:36:14;;;;;;;2.07;1.20;;;13.60;73.80;;;;;;5025619;28;20437;-74
2023/01/06 16:38:41;;;;;;;2.10;1.40;;;13.60;73.90;;;;;;5029422;28;20465;-73
2023/01/06 16:41:14;;;;;;;1.70;1.00;;;13.60;73.90;;;;;;5030952;28;20444;-74
2023/01/06 16:43:41;;;;;;;2.07;1.20;;;13.60;74.10;;;;;;5030232;28;20532;-74
2023/01/06 16:46:14;;;;;;;2.00;1.50;;;13.60;74.40;;;;;;5028998;28;20938;-74
2023/01/06 16:48:41;;;;;;;2.00;1.20;;;13.50;74.40;;;;;;5028611;28;20495;-75
2023/01/06 16:51:14;;;;;;;2.00;1.33;;;13.50;74.50;;;;;;5023876;28;20457;-74
2023/01/06 16:53:42;;;;;;;2.30;1.40;;;13.50;74.00;;;;;;5018380;28;20436;-74
2023/01/06 16:56:16;;;;;;;2.00;1.30;;;13.50;74.00;;;;;;5016134;28;20492;-75
2023/01/06 16:58:43;;;;;;;2.57;1.20;;;13.50;74.00;;;;;;5016046;28;20465;-75
2023/01/06 17:01:14;;;;;;;2.00;1.30;;;13.50;74.10;;;;;;5016051;28;20453;-75
2023/01/06 17:03:41;;;;;;;2.13;1.50;;;13.40;74.20;;;;;;5016106;28;20433;-75
2023/01/06 17:06:16;;;;;;;2.30;1.80;;;13.40;74.30;;;;;;5015917;28;20499;-75
2023/01/06 17:08:43;;;;;;;2.00;1.20;;;13.40;74.40;;;;;;5015523;28;20555;-75
2023/01/06 17:11:14;;;;;;;2.20;1.30;;;13.40;74.50;;;;;;5015971;28;20499;-75
2023/01/06 17:13:44;;;;;;;2.20;1.40;;;13.40;74.70;;;;;;5015790;28;20491;-75
2023/01/06 17:16:16;;;;;;;3.00;2.40;;;13.40;75.00;;;;;;5015402;28;20432;-75